Time;durP1;ratioP1;P1;durP2;ratioP2;P2;SDS_P1;SDS_P2;PMS_P1;PMS_P2;Temp;Humidity;BMP_temperature;BMP_pressure;BME280_temperature;BME280_humidity;BME280_pressure;Samples;Min_cycle;Max_cycle;Signal;HPM_P1;HPM_P2
2023/12/21 00:01:51;;;;;;;3.93;1.40;;;21.10;99.90;;;;;;4994114;28;20520;-70
2023/12/21 00:04:19;;;;;;;6.03;1.03;;;21.10;99.90;;;;;;4993200;28;20187;-69
2023/12/21 00:06:46;;;;;;;8.07;2.00;;;20.80;99.90;;;;;;4992315;28;20191;-70
2023/12/21 00:09:14;;;;;;;3.83;1.37;;;20.60;99.90;;;;;;4994706;28;20184;-69
2023/12/21 00:11:42;;;;;;;3.20;1.17;;;20.70;99.90;;;;;;4979032;28;20201;-71
2023/12/21 00:14:10;;;;;;;11.23;1.63;;;20.70;99.90;;;;;;4993962;28;20194;-69
2023/12/21 00:16:37;;;;;;;3.83;1.27;;;20.70;99.90;;;;;;4992292;28;20688;-70
2023/12/21 00:19:05;;;;;;;5.67;1.20;;;20.70;99.90;;;;;;4995430;28;20187;-72
2023/12/21 00:21:33;;;;;;;6.80;1.43;;;20.70;99.90;;;;;;4995076;28;20213;-72
2023/12/21 00:24:00;;;;;;;4.73;1.30;;;20.70;99.90;;;;;;4995150;28;20223;-71
2023/12/21 00:26:28;;;;;;;3.70;1.10;;;20.80;99.90;;;;;;4994997;28;20283;-69
2023/12/21 00:28:56;;;;;;;4.57;1.77;;;20.90;99.90;;;;;;4995191;28;20171;-69
2023/12/21 00:31:23;;;;;;;9.73;1.50;;;21.00;99.90;;;;;;4993692;28;20186;-70
2023/12/21 00:33:51;;;;;;;9.37;1.70;;;21.00;99.90;;;;;;4994428;28;20179;-70
2023/12/21 00:36:19;;;;;;;7.43;1.70;;;21.00;99.90;;;;;;4992099;28;20174;-70
2023/12/21 00:38:46;;;;;;;5.83;1.60;;;21.00;99.90;;;;;;4994047;28;20178;-69
2023/12/21 00:41:14;;;;;;;7.80;2.23;;;21.00;99.90;;;;;;4994540;28;20175;-69
2023/12/21 00:43:42;;;;;;;9.43;1.70;;;20.90;99.90;;;;;;4996835;28;20211;-69
2023/12/21 00:46:10;;;;;;;10.50;1.97;;;20.80;99.90;;;;;;4996011;28;20304;-69
2023/12/21 00:48:37;;;;;;;7.00;1.90;;;20.90;99.90;;;;;;4994847;28;20183;-71
2023/12/21 00:51:06;;;;;;;8.27;2.33;;;20.90;99.90;;;;;;4994917;28;20261;-71
2023/12/21 00:53:33;;;;;;;7.23;2.43;;;20.90;99.90;;;;;;4976566;28;20197;-71
2023/12/21 00:56:01;;;;;;;11.77;3.40;;;20.80;99.90;;;;;;4994703;28;20191;-71
2023/12/21 00:58:29;;;;;;;8.10;2.10;;;20.80;99.90;;;;;;4991731;28;20233;-71
2023/12/21 01:00:57;;;;;;;12.50;2.27;;;20.70;99.90;;;;;;4994538;28;20171;-70
2023/12/21 01:03:24;;;;;;;8.00;1.80;;;20.90;99.90;;;;;;4994215;28;20219;-71
2023/12/21 01:05:51;;;;;;;12.83;2.47;;;21.10;99.90;;;;;;4994517;28;20200;-69
2023/12/21 01:08:19;;;;;;;17.90;3.17;;;21.20;99.90;;;;;;4994134;28;20185;-70
2023/12/21 01:10:46;;;;;;;12.20;3.07;;;21.40;99.90;;;;;;4994782;28;20174;-70
2023/12/21 01:13:13;;;;;;;20.57;3.47;;;21.50;99.90;;;;;;4994541;28;20185;-70
2023/12/21 01:15:41;;;;;;;10.97;2.30;;;21.70;99.90;;;;;;4993633;28;20170;-69
2023/12/21 01:18:08;;;;;;;13.43;2.93;;;21.80;99.90;;;;;;4993925;28;20548;-69
2023/12/21 01:20:35;;;;;;;9.87;2.47;;;22.00;99.90;;;;;;4993977;28;20175;-69
2023/12/21 01:23:03;;;;;;;11.63;2.47;;;22.40;99.90;;;;;;4993581;28;20238;-70
2023/12/21 01:25:30;;;;;;;8.97;2.30;;;22.70;99.90;;;;;;4994317;28;20206;-70
2023/12/21 01:27:57;;;;;;;10.43;2.80;;;22.70;99.90;;;;;;4994190;28;20183;-71
2023/12/21 01:30:25;;;;;;;14.90;4.27;;;22.70;99.90;;;;;;4993504;28;20174;-71
2023/12/21 01:32:53;;;;;;;18.47;2.70;;;22.80;99.90;;;;;;4994203;28;20196;-70
2023/12/21 01:35:20;;;;;;;15.13;2.57;;;22.90;99.90;;;;;;4994298;28;20182;-69
2023/12/21 01:37:48;;;;;;;13.23;2.30;;;22.80;99.90;;;;;;4993707;28;20190;-70
2023/12/21 01:40:16;;;;;;;14.10;3.13;;;22.70;99.90;;;;;;4994076;28;20257;-71
2023/12/21 01:42:43;;;;;;;9.57;2.10;;;22.80;99.90;;;;;;4994094;28;20656;-70
2023/12/21 01:45:11;;;;;;;13.27;2.73;;;22.90;99.90;;;;;;4993593;28;20518;-71
2023/12/21 01:47:38;;;;;;;10.20;2.67;;;23.00;99.90;;;;;;4994129;28;20186;-70
2023/12/21 01:50:07;;;;;;;9.20;2.53;;;22.90;99.90;;;;;;4993791;28;20188;-70
2023/12/21 01:52:35;;;;;;;14.00;3.10;;;22.60;99.90;;;;;;4993430;28;20183;-71
2023/12/21 01:55:04;;;;;;;13.80;2.47;;;22.50;99.90;;;;;;4993740;28;20182;-72
2023/12/21 01:57:31;;;;;;;10.27;2.20;;;22.50;99.90;;;;;;4993266;28;20241;-71
2023/12/21 01:59:59;;;;;;;15.93;3.23;;;22.80;99.90;;;;;;4993099;28;20688;-72
2023/12/21 02:02:26;;;;;;;14.73;2.83;;;23.60;99.90;;;;;;4993729;28;20237;-71
2023/12/21 02:04:54;;;;;;;8.20;2.13;;;24.20;99.90;;;;;;4992307;28;20659;-72
2023/12/21 02:07:21;;;;;;;12.10;2.23;;;24.50;99.90;;;;;;4993000;28;20242;-71
2023/12/21 02:09:48;;;;;;;9.40;2.53;;;24.50;99.90;;;;;;4993284;28;20186;-71
2023/12/21 02:12:16;;;;;;;9.93;2.20;;;24.30;99.90;;;;;;4993525;28;20265;-72
2023/12/21 02:14:43;;;;;;;13.73;2.47;;;24.00;99.90;;;;;;4992884;28;20257;-71
2023/12/21 02:17:16;;;;;;;11.40;2.30;;;24.00;99.90;;;;;;4992784;28;20194;-72
2023/12/21 02:19:43;;;;;;;10.40;2.50;;;23.80;99.90;;;;;;4967910;28;20238;-71
2023/12/21 02:22:14;;;;;;;12.77;2.80;;;23.60;99.90;;;;;;4992762;28;20221;-71
2023/12/21 02:24:41;;;;;;;11.70;2.57;;;23.50;99.90;;;;;;4992955;28;20185;-71
2023/12/21 02:27:08;;;;;;;14.27;2.73;;;23.70;99.90;;;;;;4993280;28;20186;-71
2023/12/21 02:29:36;;;;;;;13.50;2.33;;;24.10;99.90;;;;;;4992629;28;20538;-71
2023/12/21 02:32:03;;;;;;;6.50;1.70;;;24.00;99.90;;;;;;4992889;28;20686;-71
2023/12/21 02:34:31;;;;;;;9.07;2.47;;;23.60;99.90;;;;;;4992905;28;20182;-71
2023/12/21 02:36:58;;;;;;;14.73;3.03;;;23.30;99.90;;;;;;4992445;28;20553;-71
2023/12/21 02:39:25;;;;;;;11.20;3.33;;;22.90;99.90;;;;;;4992648;28;20216;-71
2023/12/21 02:41:55;;;;;;;10.30;2.53;;;22.70;99.90;;;;;;4992830;28;20224;-71
2023/12/21 02:44:22;;;;;;;14.50;2.43;;;22.80;99.90;;;;;;4992230;28;20233;-70
2023/12/21 02:46:50;;;;;;;13.57;2.77;;;22.90;99.90;;;;;;4992438;28;20269;-72
2023/12/21 02:49:17;;;;;;;7.57;2.00;;;23.50;99.90;;;;;;4992813;28;20187;-70
2023/12/21 02:51:44;;;;;;;12.63;2.50;;;23.80;99.90;;;;;;4992279;28;20177;-71
2023/12/21 02:54:12;;;;;;;14.47;2.53;;;24.20;99.90;;;;;;4992408;28;20245;-71
2023/12/21 02:56:39;;;;;;;17.00;2.70;;;24.00;99.90;;;;;;4975291;28;20186;-70
2023/12/21 02:59:06;;;;;;;11.67;1.90;;;23.50;99.90;;;;;;4991919;28;20241;-70
2023/12/21 03:01:33;;;;;;;12.83;2.30;;;23.10;99.90;;;;;;4991953;28;20197;-70
2023/12/21 03:04:01;;;;;;;8.73;2.10;;;23.10;99.90;;;;;;4974655;28;20327;-71
2023/12/21 03:06:28;;;;;;;10.37;2.23;;;23.10;99.90;;;;;;4991202;28;20209;-70
2023/12/21 03:08:55;;;;;;;10.00;2.80;;;23.20;99.90;;;;;;4992489;28;20684;-71
2023/12/21 03:11:23;;;;;;;9.47;2.10;;;23.10;99.90;;;;;;4992051;28;20556;-69
2023/12/21 03:13:50;;;;;;;9.93;2.33;;;23.10;99.90;;;;;;4974289;28;20690;-70
2023/12/21 03:16:20;;;;;;;16.17;2.73;;;23.10;99.90;;;;;;4991963;28;20644;-71
2023/12/21 03:18:48;;;;;;;12.80;2.43;;;23.40;99.90;;;;;;4992026;28;20308;-71
2023/12/21 03:21:15;;;;;;;14.43;2.50;;;23.60;99.90;;;;;;4991123;28;20179;-72
2023/12/21 03:23:42;;;;;;;11.23;2.37;;;23.70;99.90;;;;;;4991770;28;20229;-70
2023/12/21 03:26:10;;;;;;;11.43;2.40;;;23.50;99.90;;;;;;4992053;28;20270;-69
2023/12/21 03:28:45;;;;;;;10.67;2.37;;;23.30;99.90;;;;;;4991783;28;20674;-72
2023/12/21 03:31:15;;;;;;;12.63;2.87;;;23.40;99.90;;;;;;4972820;28;20189;-71
2023/12/21 03:33:43;;;;;;;13.13;2.57;;;23.60;99.90;;;;;;4972660;28;20657;-70
2023/12/21 03:36:13;;;;;;;14.87;2.70;;;24.40;99.90;;;;;;4972269;28;20187;-70
2023/12/21 03:38:40;;;;;;;12.53;2.87;;;24.70;99.90;;;;;;4972793;28;20186;-71
2023/12/21 03:41:07;;;;;;;14.77;3.27;;;24.60;99.90;;;;;;4982506;28;20281;-71
2023/12/21 03:43:35;;;;;;;17.93;2.93;;;24.30;99.90;;;;;;4991565;28;20214;-72
2023/12/21 03:46:03;;;;;;;15.80;2.77;;;24.80;99.90;;;;;;4974783;28;20202;-70
2023/12/21 03:48:30;;;;;;;13.60;2.57;;;25.00;99.90;;;;;;4992067;28;20251;-70
2023/12/21 03:50:57;;;;;;;21.27;3.83;;;24.90;99.90;;;;;;4991691;28;20234;-72
2023/12/21 03:53:24;;;;;;;13.53;3.03;;;24.90;99.90;;;;;;4992039;28;20236;-69
2023/12/21 03:55:52;;;;;;;14.13;2.57;;;24.40;99.90;;;;;;4991582;28;20244;-71
2023/12/21 03:58:19;;;;;;;15.70;2.73;;;24.40;99.90;;;;;;4990806;28;20250;-71
2023/12/21 04:00:46;;;;;;;18.67;3.33;;;24.90;99.90;;;;;;4991607;28;20241;-72
2023/12/21 04:03:14;;;;;;;16.33;3.13;;;25.20;99.90;;;;;;4991739;28;20218;-71
2023/12/21 04:05:41;;;;;;;14.20;3.17;;;25.60;99.90;;;;;;4991263;28;20183;-70
2023/12/21 04:08:09;;;;;;;10.87;2.47;;;24.80;99.90;;;;;;4991702;28;20325;-70
2023/12/21 04:10:36;;;;;;;15.57;3.80;;;24.60;99.90;;;;;;4974578;28;20179;-71
2023/12/21 04:13:04;;;;;;;15.37;2.93;;;24.40;99.90;;;;;;4991642;28;20261;-70
2023/12/21 04:15:31;;;;;;;16.87;3.57;;;24.20;99.90;;;;;;4992041;28;20179;-70
2023/12/21 04:17:58;;;;;;;12.30;2.90;;;24.70;99.90;;;;;;4991634;28;20717;-70
2023/12/21 04:20:25;;;;;;;12.77;3.47;;;25.60;99.90;;;;;;4974146;28;20194;-71
2023/12/21 04:22:53;;;;;;;13.70;3.20;;;26.30;99.90;;;;;;4992154;28;20218;-71
2023/12/21 04:25:22;;;;;;;9.63;2.67;;;26.80;99.90;;;;;;4974064;28;20270;-69
2023/12/21 04:27:49;;;;;;;16.67;2.50;;;26.90;99.90;;;;;;4992225;28;20589;-69
2023/12/21 04:30:16;;;;;;;16.43;2.47;;;27.40;99.90;;;;;;4996185;28;20672;-72
2023/12/21 04:32:44;;;;;;;15.47;3.03;;;27.00;99.90;;;;;;4996046;28;20195;-70
2023/12/21 04:35:11;;;;;;;11.33;2.40;;;26.50;99.90;;;;;;4995883;28;20187;-73
2023/12/21 04:37:39;;;;;;;11.70;2.27;;;25.70;99.90;;;;;;4997888;28;20242;-73
2023/12/21 04:40:07;;;;;;;13.67;2.73;;;25.40;99.90;;;;;;4997577;28;20197;-70
2023/12/21 04:42:34;;;;;;;11.53;2.77;;;25.30;99.90;;;;;;4997114;28;20303;-71
2023/12/21 04:45:02;;;;;;;12.47;3.03;;;25.20;99.90;;;;;;4996280;28;20178;-70
2023/12/21 04:47:29;;;;;;;13.37;3.03;;;25.20;99.90;;;;;;4995976;28;20269;-71
2023/12/21 04:49:56;;;;;;;11.90;2.80;;;24.80;99.90;;;;;;4995631;28;20782;-71
2023/12/21 04:52:24;;;;;;;14.33;2.63;;;24.40;99.90;;;;;;4995408;28;20220;-71
2023/12/21 04:54:51;;;;;;;12.47;3.10;;;24.30;99.90;;;;;;4994976;28;20241;-70
2023/12/21 04:57:19;;;;;;;13.97;2.93;;;24.10;99.90;;;;;;4994118;28;20202;-72
2023/12/21 04:59:47;;;;;;;14.10;2.80;;;24.20;99.90;;;;;;4995069;28;20317;-72
2023/12/21 05:02:14;;;;;;;13.50;2.30;;;24.50;99.90;;;;;;4995050;28;20228;-71
2023/12/21 05:04:41;;;;;;;15.07;2.97;;;24.60;99.90;;;;;;4994564;28;20190;-72
2023/12/21 05:07:10;;;;;;;11.30;3.03;;;24.60;99.90;;;;;;4994063;28;20244;-71
2023/12/21 05:09:38;;;;;;;12.07;2.90;;;24.40;99.90;;;;;;4994248;28;20220;-69
2023/12/21 05:12:05;;;;;;;13.07;2.80;;;24.40;99.90;;;;;;4993907;28;20283;-73
2023/12/21 05:14:33;;;;;;;20.60;3.83;;;24.40;99.90;;;;;;4994418;28;20189;-70
2023/12/21 05:17:00;;;;;;;12.07;3.37;;;24.20;99.90;;;;;;4994493;28;20187;-71
2023/12/21 05:19:30;;;;;;;11.60;2.77;;;24.30;99.90;;;;;;4993969;28;20190;-71
2023/12/21 05:21:58;;;;;;;11.40;2.30;;;24.40;99.90;;;;;;4993920;28;20679;-71
2023/12/21 05:24:25;;;;;;;14.20;3.07;;;24.30;99.90;;;;;;4994221;28;20198;-70
2023/12/21 05:26:53;;;;;;;15.13;2.90;;;24.20;99.90;;;;;;4993089;28;20537;-71
2023/12/21 05:29:20;;;;;;;13.10;3.23;;;24.20;99.90;;;;;;4994489;28;20260;-69
2023/12/21 05:31:48;;;;;;;11.63;2.33;;;24.30;99.90;;;;;;4994296;28;20178;-71
2023/12/21 05:34:15;;;;;;;18.17;3.43;;;24.30;99.90;;;;;;4993751;28;20179;-71
2023/12/21 05:36:42;;;;;;;12.53;2.77;;;24.20;99.90;;;;;;4994158;28;20191;-71
2023/12/21 05:39:10;;;;;;;16.23;2.73;;;24.20;99.90;;;;;;4976607;28;20190;-72
2023/12/21 05:41:38;;;;;;;16.97;3.53;;;24.10;99.90;;;;;;4993553;28;20648;-71
2023/12/21 05:44:05;;;;;;;23.17;3.67;;;23.90;99.90;;;;;;4993766;28;20680;-72
2023/12/21 05:46:32;;;;;;;15.97;3.30;;;23.80;99.90;;;;;;4988414;28;20183;-72
2023/12/21 05:49:03;;;;;;;20.47;3.60;;;23.80;99.90;;;;;;4993515;28;20179;-71
2023/12/21 05:51:31;;;;;;;17.20;3.03;;;23.80;99.90;;;;;;4993937;28;20178;-72
2023/12/21 05:53:58;;;;;;;16.50;3.70;;;23.80;99.90;;;;;;4993392;28;20488;-70
2023/12/21 05:56:26;;;;;;;16.53;3.37;;;23.80;99.90;;;;;;4975865;28;20656;-70
2023/12/21 05:58:53;;;;;;;19.87;3.50;;;23.60;99.90;;;;;;4993713;28;20316;-72
2023/12/21 06:01:20;;;;;;;15.97;4.03;;;23.50;99.90;;;;;;4994025;28;20268;-71
2023/12/21 06:03:48;;;;;;;15.50;3.20;;;23.40;99.90;;;;;;4993133;28;20218;-71
2023/12/21 06:06:16;;;;;;;18.77;2.80;;;23.30;99.90;;;;;;4993498;28;20183;-70
2023/12/21 06:08:43;;;;;;;17.33;2.73;;;23.20;99.90;;;;;;4976394;28;20293;-71
2023/12/21 06:11:11;;;;;;;15.27;3.10;;;23.20;99.90;;;;;;4975768;28;20285;-72
2023/12/21 06:13:38;;;;;;;18.07;3.50;;;23.10;99.90;;;;;;4993491;28;20174;-70
2023/12/21 06:16:11;;;;;;;16.50;3.93;;;23.10;99.90;;;;;;4993498;28;20178;-70
2023/12/21 06:18:40;;;;;;;15.80;3.53;;;23.60;99.90;;;;;;4975513;28;20200;-71
2023/12/21 06:21:07;;;;;;;16.33;3.13;;;24.10;99.90;;;;;;4976351;28;20186;-70
2023/12/21 06:23:34;;;;;;;12.73;2.83;;;24.20;99.90;;;;;;4993423;28;20708;-70
2023/12/21 06:26:02;;;;;;;16.60;3.27;;;23.90;99.90;;;;;;4992414;28;20182;-71
2023/12/21 06:28:29;;;;;;;15.17;3.57;;;23.50;99.90;;;;;;4992888;28;20197;-71
2023/12/21 06:34:19;;;;;;;13.60;2.90;;;23.10;99.90;;;;;;4992062;28;20710;-71
2023/12/21 06:36:46;;;;;;;15.30;3.37;;;23.50;99.90;;;;;;4992685;28;20204;-71
2023/12/21 06:39:14;;;;;;;21.37;3.67;;;23.20;99.90;;;;;;4992463;28;20196;-72
2023/12/21 06:41:41;;;;;;;19.13;3.80;;;22.90;99.90;;;;;;4992808;28;20189;-71
2023/12/21 06:44:10;;;;;;;14.53;2.73;;;22.80;99.90;;;;;;4992610;28;20452;-70
2023/12/21 06:46:38;;;;;;;15.10;2.57;;;23.20;99.90;;;;;;4974882;28;20663;-72
2023/12/21 06:49:05;;;;;;;14.33;3.80;;;23.60;99.90;;;;;;4992562;28;20194;-70
2023/12/21 06:51:32;;;;;;;18.97;3.60;;;23.30;99.90;;;;;;4992062;28;20635;-70
2023/12/21 06:54:00;;;;;;;14.60;3.33;;;23.30;99.90;;;;;;4992059;28;20614;-71
2023/12/21 06:56:27;;;;;;;14.43;2.93;;;23.60;99.90;;;;;;4992292;28;20194;-69
2023/12/21 06:58:54;;;;;;;16.33;2.87;;;23.80;99.90;;;;;;4992277;28;20226;-71
2023/12/21 07:01:31;;;;;;;12.60;2.70;;;23.80;99.90;;;;;;4991560;28;20186;-71
2023/12/21 07:03:58;;;;;;;11.20;2.60;;;23.60;99.90;;;;;;4989663;28;20226;-71
2023/12/21 07:06:26;;;;;;;12.03;2.50;;;23.20;99.90;;;;;;4992151;28;20245;-70
2023/12/21 07:08:54;;;;;;;14.50;2.77;;;22.90;99.90;;;;;;4986536;28;20229;-71
2023/12/21 07:11:22;;;;;;;11.47;2.70;;;22.70;99.90;;;;;;4992107;28;20594;-71
2023/12/21 07:13:50;;;;;;;12.50;3.17;;;22.70;99.90;;;;;;4991635;28;20195;-71
2023/12/21 07:16:17;;;;;;;12.83;2.77;;;22.90;99.90;;;;;;4991965;28;20586;-70
2023/12/21 07:18:45;;;;;;;19.20;3.57;;;23.10;99.90;;;;;;4991711;28;20268;-70
2023/12/21 07:21:13;;;;;;;16.40;2.53;;;23.00;99.90;;;;;;4989250;28;20231;-70
2023/12/21 07:23:40;;;;;;;18.43;3.10;;;22.70;99.90;;;;;;4991047;28;20228;-70
2023/12/21 07:26:10;;;;;;;8.03;2.40;;;22.50;99.90;;;;;;4991643;28;20644;-70
2023/12/21 07:28:38;;;;;;;12.83;2.87;;;22.40;99.90;;;;;;4991534;28;20252;-71
2023/12/21 07:31:05;;;;;;;8.97;2.33;;;22.30;99.90;;;;;;4991057;28;20194;-69
2023/12/21 07:33:34;;;;;;;12.67;2.27;;;22.30;99.90;;;;;;4989120;28;20179;-69
2023/12/21 07:36:02;;;;;;;11.47;2.87;;;22.70;99.90;;;;;;4991598;28;20663;-70
2023/12/21 07:38:30;;;;;;;13.93;2.77;;;23.00;99.90;;;;;;4991410;28;20290;-71
2023/12/21 07:40:57;;;;;;;16.17;2.83;;;23.30;99.90;;;;;;4992137;28;20221;-70
2023/12/21 07:43:25;;;;;;;8.57;2.27;;;23.20;99.90;;;;;;4992128;28;20222;-72
2023/12/21 07:45:52;;;;;;;13.77;2.60;;;23.20;99.90;;;;;;4991628;28;20641;-71
2023/12/21 07:48:19;;;;;;;13.27;2.70;;;23.10;99.90;;;;;;4991930;28;20221;-70
2023/12/21 07:50:47;;;;;;;13.20;2.70;;;23.10;99.90;;;;;;4992081;28;20288;-70
2023/12/21 07:53:14;;;;;;;16.00;3.20;;;23.10;99.90;;;;;;4991205;28;20186;-71
2023/12/21 07:55:41;;;;;;;13.87;3.23;;;23.10;99.90;;;;;;4991388;28;20183;-71
2023/12/21 07:58:08;;;;;;;15.43;3.00;;;23.30;99.90;;;;;;4991211;28;20273;-71
2023/12/21 08:00:36;;;;;;;14.33;2.73;;;23.30;99.90;;;;;;4991421;28;20854;-71
2023/12/21 08:03:03;;;;;;;14.87;2.77;;;23.00;99.90;;;;;;4993008;28;20221;-73
2023/12/21 08:05:31;;;;;;;14.90;3.00;;;22.90;99.90;;;;;;4997307;28;20263;-71
2023/12/21 08:07:58;;;;;;;11.67;2.23;;;22.70;99.90;;;;;;4996954;28;20269;-71
2023/12/21 08:10:26;;;;;;;16.67;2.80;;;22.50;99.90;;;;;;4996977;28;20178;-70
2023/12/21 08:12:53;;;;;;;14.37;2.83;;;22.30;99.90;;;;;;4997024;28;20186;-71
2023/12/21 08:15:20;;;;;;;15.03;3.07;;;22.30;99.90;;;;;;4996786;28;20181;-70
2023/12/21 08:17:51;;;;;;;13.33;2.77;;;22.20;99.90;;;;;;4996044;28;20186;-70
2023/12/21 08:20:18;;;;;;;16.23;3.80;;;22.20;99.90;;;;;;4997147;28;20175;-71
2023/12/21 08:22:45;;;;;;;16.03;2.80;;;22.10;99.90;;;;;;4996688;28;20252;-71
2023/12/21 08:25:13;;;;;;;14.47;3.33;;;22.10;99.90;;;;;;4997719;28;20638;-71
2023/12/21 08:27:43;;;;;;;17.43;3.27;;;22.10;99.90;;;;;;4997578;28;20189;-71
2023/12/21 08:30:11;;;;;;;16.87;3.07;;;22.00;99.90;;;;;;4980663;28;20643;-72
2023/12/21 08:32:39;;;;;;;18.70;3.20;;;22.10;99.90;;;;;;4996670;28;20246;-72
2023/12/21 08:35:07;;;;;;;18.87;2.97;;;22.00;99.90;;;;;;4997003;28;20210;-71
2023/12/21 08:37:34;;;;;;;15.77;3.17;;;21.90;99.90;;;;;;4997144;28;20218;-72
2023/12/21 08:40:03;;;;;;;15.73;2.80;;;21.90;99.90;;;;;;4996986;28;20174;-70
2023/12/21 08:42:31;;;;;;;12.73;2.97;;;21.80;99.90;;;;;;4997245;28;20233;-70
2023/12/21 08:45:02;;;;;;;13.73;3.03;;;21.70;99.90;;;;;;4997110;28;20703;-70
2023/12/21 08:47:32;;;;;;;17.23;2.83;;;21.80;99.90;;;;;;4997417;28;20264;-70
2023/12/21 08:50:03;;;;;;;10.80;2.80;;;21.60;99.90;;;;;;4979652;28;20277;-70
2023/12/21 08:52:32;;;;;;;16.23;2.93;;;21.50;99.90;;;;;;4997040;28;20212;-70
2023/12/21 08:55:00;;;;;;;18.80;3.13;;;21.50;99.90;;;;;;4982153;28;20616;-71
2023/12/21 08:57:28;;;;;;;13.37;3.17;;;21.40;99.90;;;;;;4996100;28;20182;-70
2023/12/21 08:59:55;;;;;;;23.67;3.83;;;21.40;99.90;;;;;;4995582;28;20275;-69
2023/12/21 09:02:25;;;;;;;17.03;2.73;;;21.50;99.90;;;;;;4995970;28;20198;-71
2023/12/21 09:04:52;;;;;;;12.93;2.53;;;21.40;99.90;;;;;;4996349;28;20261;-70
2023/12/21 09:07:20;;;;;;;18.77;3.00;;;21.30;99.90;;;;;;4996349;28;20174;-71
2023/12/21 09:09:48;;;;;;;13.17;2.40;;;21.20;99.90;;;;;;4996395;28;20627;-70
2023/12/21 09:12:16;;;;;;;15.13;2.90;;;21.10;99.90;;;;;;4996347;28;20575;-70
2023/12/21 09:14:43;;;;;;;10.87;2.80;;;21.00;99.90;;;;;;5003908;28;20192;-70
2023/12/21 09:17:13;;;;;;;18.50;2.90;;;21.00;99.90;;;;;;5001795;28;20248;-70
2023/12/21 09:19:41;;;;;;;13.47;2.90;;;21.00;99.90;;;;;;5001485;28;20176;-70
2023/12/21 09:22:09;;;;;;;14.97;2.97;;;20.90;99.90;;;;;;4995946;28;20656;-70
2023/12/21 09:24:40;;;;;;;17.27;2.77;;;20.90;99.90;;;;;;4995894;28;20191;-70
2023/12/21 09:27:07;;;;;;;10.47;2.87;;;20.80;99.90;;;;;;4995914;28;20268;-71
2023/12/21 09:29:35;;;;;;;16.33;3.07;;;20.80;99.90;;;;;;4996045;28;20185;-71
2023/12/21 09:32:03;;;;;;;12.63;3.60;;;20.80;99.90;;;;;;4995845;28;20179;-71
2023/12/21 09:34:31;;;;;;;19.70;3.13;;;20.70;99.90;;;;;;4995802;28;20175;-70
2023/12/21 09:36:59;;;;;;;14.50;2.63;;;20.70;99.90;;;;;;4995731;28;20270;-70
2023/12/21 09:39:29;;;;;;;15.17;2.73;;;20.70;99.90;;;;;;4995637;28;20183;-70
2023/12/21 09:42:01;;;;;;;21.33;3.63;;;20.70;99.90;;;;;;4995954;28;20335;-70
2023/12/21 09:44:32;;;;;;;13.30;2.77;;;20.60;99.90;;;;;;4995509;28;20187;-71
2023/12/21 09:47:06;;;;;;;14.33;2.53;;;20.60;99.90;;;;;;4995666;28;20208;-71
2023/12/21 09:49:36;;;;;;;15.07;3.63;;;20.60;99.90;;;;;;4994287;28;20186;-71
2023/12/21 09:52:09;;;;;;;16.00;3.33;;;20.50;99.90;;;;;;4995392;28;20197;-70
2023/12/21 09:54:40;;;;;;;15.10;2.63;;;20.50;99.90;;;;;;4995228;28;20246;-72
2023/12/21 09:57:09;;;;;;;15.53;3.10;;;20.50;99.90;;;;;;4995477;28;20179;-72
2023/12/21 09:59:37;;;;;;;15.63;3.17;;;20.40;99.90;;;;;;4995329;28;20690;-71
2023/12/21 10:02:11;;;;;;;19.00;3.70;;;20.30;99.90;;;;;;4995457;28;20182;-72
2023/12/21 10:04:45;;;;;;;20.07;3.47;;;20.20;99.90;;;;;;4995249;28;20600;-70
2023/12/21 10:07:14;;;;;;;14.10;3.57;;;20.10;99.90;;;;;;4995583;28;20608;-71
2023/12/21 10:13:04;;;;;;;27.40;4.03;;;19.90;99.90;;;;;;4994724;28;20229;-72
2023/12/21 10:15:34;;;;;;;23.40;3.40;;;19.90;99.90;;;;;;4994551;28;20646;-72
2023/12/21 10:18:06;;;;;;;12.30;3.37;;;19.90;99.90;;;;;;4995231;28;20222;-72
2023/12/21 10:20:33;;;;;;;20.90;4.30;;;19.90;99.90;;;;;;4995226;28;20179;-72
2023/12/21 10:23:01;;;;;;;21.10;3.57;;;19.90;99.90;;;;;;4995240;28;20216;-71
2023/12/21 10:25:29;;;;;;;22.90;3.83;;;19.90;99.90;;;;;;4996415;28;20689;-72
2023/12/21 10:27:57;;;;;;;23.83;4.80;;;19.90;99.90;;;;;;4995905;28;20590;-72
2023/12/21 10:30:27;;;;;;;16.40;3.60;;;19.90;99.90;;;;;;4996712;28;20179;-73
2023/12/21 10:32:55;;;;;;;18.67;3.57;;;19.90;99.90;;;;;;4995547;28;20186;-72
2023/12/21 10:35:26;;;;;;;25.27;3.57;;;20.00;99.90;;;;;;4994980;28;20214;-73
2023/12/21 10:37:54;;;;;;;25.33;3.87;;;20.10;99.90;;;;;;4995035;28;20553;-73
2023/12/21 10:40:26;;;;;;;15.50;3.30;;;20.10;99.90;;;;;;4994538;28;20186;-72
2023/12/21 10:42:56;;;;;;;15.67;3.77;;;20.00;99.90;;;;;;4994330;28;20219;-73
2023/12/21 10:45:24;;;;;;;18.37;4.23;;;20.00;99.90;;;;;;4994579;28;20285;-72
2023/12/21 10:47:57;;;;;;;25.27;4.07;;;20.00;99.90;;;;;;4994107;28;20279;-71
2023/12/21 10:50:28;;;;;;;20.27;3.67;;;20.00;99.90;;;;;;4994541;28;20205;-71
2023/12/21 10:53:02;;;;;;;19.47;3.30;;;20.00;99.90;;;;;;4994161;28;20195;-72
2023/12/21 10:55:31;;;;;;;19.73;3.13;;;19.90;99.90;;;;;;4994452;28;20646;-71
2023/12/21 10:58:02;;;;;;;14.97;3.60;;;19.90;99.90;;;;;;4994039;28;20183;-71
2023/12/21 11:00:30;;;;;;;15.47;3.33;;;19.90;99.90;;;;;;4994046;28;20216;-72
2023/12/21 11:02:59;;;;;;;17.97;3.33;;;19.90;99.90;;;;;;4994327;28;20704;-72
2023/12/21 11:05:31;;;;;;;20.07;4.03;;;19.90;99.90;;;;;;4994229;28;20183;-72
2023/12/21 11:08:00;;;;;;;20.50;3.50;;;19.90;99.90;;;;;;4994373;28;20191;-71
2023/12/21 11:10:28;;;;;;;19.10;3.17;;;19.90;99.90;;;;;;4994440;28;20179;-70
2023/12/21 11:12:56;;;;;;;17.00;3.27;;;19.90;99.90;;;;;;4976748;28;20246;-70
2023/12/21 11:15:25;;;;;;;20.90;3.87;;;19.80;99.90;;;;;;4994650;28;20178;-70
2023/12/21 11:18:11;;;;;;;15.60;3.30;;;19.80;99.90;;;;;;4994413;28;20579;-72
2023/12/21 11:20:54;;;;;;;18.33;3.30;;;19.80;99.90;;;;;;4994325;28;20636;-69
2023/12/21 11:23:23;;;;;;;20.30;4.27;;;19.80;99.90;;;;;;4994162;28;20218;-71
2023/12/21 11:26:00;;;;;;;18.17;3.07;;;19.80;99.90;;;;;;4994027;28;20600;-71
2023/12/21 11:28:32;;;;;;;23.77;4.27;;;19.80;99.90;;;;;;4994018;28;20191;-71
2023/12/21 11:31:00;;;;;;;17.70;3.33;;;19.80;99.90;;;;;;4994301;28;20184;-70
2023/12/21 11:33:31;;;;;;;22.20;3.43;;;19.80;99.90;;;;;;4993886;28;20199;-69
2023/12/21 11:35:59;;;;;;;18.87;4.10;;;19.80;99.90;;;;;;4994360;28;20259;-70
2023/12/21 11:38:52;;;;;;;26.50;3.67;;;19.80;99.90;;;;;;4997285;28;20189;-68
2023/12/21 11:41:23;;;;;;;17.63;2.90;;;19.80;99.90;;;;;;4988217;28;20193;-70
2023/12/21 11:44:05;;;;;;;16.80;3.30;;;19.90;99.90;;;;;;4997733;28;20270;-70
2023/12/21 11:46:35;;;;;;;16.13;3.23;;;19.80;99.90;;;;;;4997799;28;20186;-70
2023/12/21 11:49:04;;;;;;;18.73;3.10;;;19.80;99.90;;;;;;4997896;28;20659;-70
2023/12/21 11:51:32;;;;;;;17.43;3.20;;;19.80;99.90;;;;;;4997678;28;20185;-71
2023/12/21 11:54:06;;;;;;;17.77;3.33;;;19.80;99.90;;;;;;4997566;28;20260;-70
2023/12/21 11:56:41;;;;;;;23.33;3.93;;;19.80;99.90;;;;;;4997246;28;20607;-70
2023/12/21 11:59:11;;;;;;;16.03;3.23;;;19.80;99.90;;;;;;4997401;28;20226;-71
2023/12/21 12:01:39;;;;;;;16.57;3.33;;;19.80;99.90;;;;;;4997256;28;20214;-72
2023/12/21 12:04:11;;;;;;;14.83;3.43;;;19.80;99.90;;;;;;4996990;28;20222;-71
2023/12/21 12:06:39;;;;;;;12.70;3.40;;;19.70;99.90;;;;;;4978191;28;20180;-71
2023/12/21 12:09:08;;;;;;;17.63;4.00;;;19.70;99.90;;;;;;4991144;28;20243;-71
2023/12/21 12:11:36;;;;;;;16.40;3.60;;;19.70;99.90;;;;;;4979767;28;20191;-71
2023/12/21 12:14:04;;;;;;;13.53;3.13;;;19.70;99.90;;;;;;4997085;28;20613;-71
2023/12/21 12:16:34;;;;;;;14.30;3.83;;;19.60;99.90;;;;;;4997360;28;20185;-71
2023/12/21 12:19:02;;;;;;;14.63;2.90;;;19.60;99.90;;;;;;4979492;28;20515;-71
2023/12/21 12:21:31;;;;;;;16.40;3.20;;;19.60;99.90;;;;;;4996852;28;20182;-72
2023/12/21 12:24:01;;;;;;;21.87;3.60;;;19.50;99.90;;;;;;4996910;28;20217;-71
2023/12/21 12:26:31;;;;;;;20.67;3.73;;;19.60;99.90;;;;;;4996145;28;20196;-72
2023/12/21 12:28:59;;;;;;;12.30;3.47;;;19.50;99.90;;;;;;4980666;28;20200;-71
2023/12/21 12:31:27;;;;;;;20.87;3.00;;;19.50;99.90;;;;;;4997369;28;20233;-71
2023/12/21 12:33:55;;;;;;;18.53;3.47;;;19.50;99.90;;;;;;4997246;28;20197;-69
2023/12/21 12:36:23;;;;;;;9.57;2.67;;;19.50;99.90;;;;;;4996238;28;20250;-70
2023/12/21 12:38:54;;;;;;;28.93;3.77;;;19.50;99.90;;;;;;4996459;28;20197;-70
2023/12/21 12:41:26;;;;;;;17.77;3.77;;;19.50;99.90;;;;;;4996677;28;20535;-70
2023/12/21 12:43:55;;;;;;;16.23;3.07;;;19.40;99.90;;;;;;4996369;28;20280;-70
2023/12/21 12:46:24;;;;;;;12.27;3.37;;;19.40;99.90;;;;;;4996687;28;20167;-71
2023/12/21 12:48:52;;;;;;;14.90;3.30;;;19.30;99.90;;;;;;4995150;28;20193;-71
2023/12/21 12:51:22;;;;;;;21.40;4.57;;;19.30;99.90;;;;;;4996315;28;20688;-71